Wetterdaten: Donnerstag, 05.08.2010
Datum Zeit Temp. A. Feuchte A. Luftdruck Regen Wind Richtung Richtung Sonnenschein UV Solar Windben
05.08.2010 00:00 15,6 C 91 % 1005,7 hPa 0,3 mm 1,6 km/h (1 Bft) SW 225 0 min 0 UV-I 0 W/m 6,4 km/h (2 Bft)
05.08.2010 00:10 15,6 C 91 % 1005,6 hPa 0,3 mm 1,6 km/h (1 Bft) S-SW 202 0 min 0 UV-I 0 W/m 6,4 km/h (2 Bft)
05.08.2010 00:20 15,4 C 91 % 1005,5 hPa 0,0 mm 0,0 km/h (0 Bft) S-SW 202 0 min 0 UV-I 0 W/m 3,2 km/h (1 Bft)
05.08.2010 00:30 15,3 C 91 % 1005,6 hPa 0,3 mm 0,0 km/h (0 Bft) S-SW 202 0 min 0 UV-I 0 W/m 3,2 km/h (1 Bft)
05.08.2010 00:40 15,3 C 91 % 1005,4 hPa 0,5 mm 0,0 km/h (0 Bft) S-SW 202 0 min 0 UV-I 0 W/m 1,6 km/h (1 Bft)
05.08.2010 00:50 15,2 C 91 % 1005,1 hPa 0,5 mm 0,0 km/h (0 Bft) S-SW 202 0 min 0 UV-I 0 W/m 1,6 km/h (1 Bft)
05.08.2010 01:00 15,1 C 91 % 1004,8 hPa 0,5 mm 0,0 km/h (0 Bft) SO 135 0 min 0 UV-I 0 W/m 6,4 km/h (2 Bft)
05.08.2010 01:10 15,1 C 91 % 1004,8 hPa 0,0 mm 0,0 km/h (0 Bft) SO 135 0 min 0 UV-I 0 W/m 3,2 km/h (1 Bft)
05.08.2010 01:20 15,1 C 92 % 1004,6 hPa 0,0 mm 0,0 km/h (0 Bft) SO 135 0 min 0 UV-I 0 W/m 1,6 km/h (1 Bft)
05.08.2010 01:30 15,1 C 92 % 1004,6 hPa 0,0 mm 0,0 km/h (0 Bft) S-SO 157 0 min 0 UV-I 0 W/m 4,8 km/h (1 Bft)
05.08.2010 01:40 14,9 C 91 % 1004,6 hPa 0,0 mm 0,0 km/h (0 Bft) S-SO 157 0 min 0 UV-I 0 W/m 3,2 km/h (1 Bft)
05.08.2010 01:50 14,8 C 92 % 1004,5 hPa 0,0 mm 0,0 km/h (0 Bft) N 0 0 min 0 UV-I 0 W/m 0,0 km/h (0 Bft)
05.08.2010 02:00 14,8 C 92 % 1004,4 hPa 0,0 mm 0,0 km/h (0 Bft) N 0 0 min 0 UV-I 0 W/m 0,0 km/h (0 Bft)
05.08.2010 02:10 14,8 C 92 % 1004,4 hPa 0,0 mm 0,0 km/h (0 Bft) N 0 0 min 0 UV-I 0 W/m 0,0 km/h (0 Bft)
05.08.2010 02:20 14,8 C 92 % 1004,4 hPa 0,0 mm 0,0 km/h (0 Bft) S-SO 157 0 min 0 UV-I 0 W/m 1,6 km/h (1 Bft)
05.08.2010 02:30 14,8 C 92 % 1004,3 hPa 0,0 mm 0,0 km/h (0 Bft) N 0 0 min 0 UV-I 0 W/m 0,0 km/h (0 Bft)
05.08.2010 02:40 14,8 C 92 % 1004,3 hPa 0,0 mm 0,0 km/h (0 Bft) S-SO 157 0 min 0 UV-I 0 W/m 1,6 km/h (1 Bft)
05.08.2010 02:50 14,8 C 92 % 1004,1 hPa 0,0 mm 0,0 km/h (0 Bft) S-SO 157 0 min 0 UV-I 0 W/m 1,6 km/h (1 Bft)
05.08.2010 03:00 14,7 C 92 % 1004,2 hPa 0,0 mm 0,0 km/h (0 Bft) N 0 0 min 0 UV-I 0 W/m 0,0 km/h (0 Bft)
05.08.2010 03:10 14,7 C 92 % 1004,1 hPa 0,0 mm 0,0 km/h (0 Bft) N 0 0 min 0 UV-I 0 W/m 0,0 km/h (0 Bft)
05.08.2010 03:20 14,8 C 92 % 1004,1 hPa 0,0 mm 0,0 km/h (0 Bft) N 0 0 min 0 UV-I 0 W/m 0,0 km/h (0 Bft)
05.08.2010 03:30 14,8 C 93 % 1004,1 hPa 0,0 mm 0,0 km/h (0 Bft) N 0 0 min 0 UV-I 0 W/m 0,0 km/h (0 Bft)
05.08.2010 03:40 14,8 C 93 % 1004,1 hPa 0,0 mm 0,0 km/h (0 Bft) S-SO 157 0 min 0 UV-I 0 W/m 1,6 km/h (1 Bft)
05.08.2010 03:50 14,8 C 93 % 1004,0 hPa 0,0 mm 0,0 km/h (0 Bft) S-SO 157 0 min 0 UV-I 0 W/m 1,6 km/h (1 Bft)
05.08.2010 04:00 14,8 C 93 % 1004,1 hPa 0,0 mm 0,0 km/h (0 Bft) SO 135 0 min 0 UV-I 0 W/m 1,6 km/h (1 Bft)
05.08.2010 04:10 14,7 C 93 % 1004,1 hPa 0,0 mm 0,0 km/h (0 Bft) S-SO 157 0 min 0 UV-I 0 W/m 3,2 km/h (1 Bft)
05.08.2010 04:20 14,7 C 93 % 1004,0 hPa 0,0 mm 0,0 km/h (0 Bft) S-SO 157 0 min 0 UV-I 0 W/m 1,6 km/h (1 Bft)
05.08.2010 04:30 14,7 C 93 % 1004,0 hPa 0,0 mm 0,0 km/h (0 Bft) N 0 0 min 0 UV-I 0 W/m 0,0 km/h (0 Bft)
05.08.2010 04:40 14,6 C 93 % 1004,0 hPa 0,0 mm 0,0 km/h (0 Bft) S-SO 157 0 min 0 UV-I 0 W/m 1,6 km/h (1 Bft)
05.08.2010 04:50 14,6 C 93 % 1004,1 hPa 0,0 mm 0,0 km/h (0 Bft) SO 135 0 min 0 UV-I 0 W/m 1,6 km/h (1 Bft)
05.08.2010 05:00 14,4 C 93 % 1004,2 hPa 0,0 mm 0,0 km/h (0 Bft) N 0 0 min 0 UV-I 0 W/m 0,0 km/h (0 Bft)
05.08.2010 05:10 14,4 C 93 % 1004,2 hPa 0,0 mm 0,0 km/h (0 Bft) N 0 0 min 0 UV-I 0 W/m 0,0 km/h (0 Bft)
05.08.2010 05:20 14,2 C 93 % 1004,2 hPa 0,0 mm 0,0 km/h (0 Bft) N 0 0 min 0 UV-I 0 W/m 0,0 km/h (0 Bft)
05.08.2010 05:30 14,1 C 93 % 1004,2 hPa 0,0 mm 0,0 km/h (0 Bft) N 0 0 min 0 UV-I 0 W/m 0,0 km/h (0 Bft)
05.08.2010 05:40 14,0 C 93 % 1004,4 hPa 0,0 mm 0,0 km/h (0 Bft) N 0 0 min 0 UV-I 0 W/m 0,0 km/h (0 Bft)
05.08.2010 05:50 14,1 C 93 % 1004,4 hPa 0,0 mm 0,0 km/h (0 Bft) N 0 0 min 0 UV-I 0 W/m 0,0 km/h (0 Bft)
05.08.2010 06:00 14,0 C 93 % 1004,5 hPa 0,0 mm 0,0 km/h (0 Bft) N 0 0 min 0 UV-I 0 W/m 0,0 km/h (0 Bft)
05.08.2010 06:10 13,9 C 93 % 1004,7 hPa 0,0 mm 0,0 km/h (0 Bft) N 0 0 min 0 UV-I 0 W/m 0,0 km/h (0 Bft)
05.08.2010 06:20 13,9 C 93 % 1004,8 hPa 0,0 mm 0,0 km/h (0 Bft) N 0 0 min 0 UV-I 0 W/m 0,0 km/h (0 Bft)
05.08.2010 06:30 14,2 C 93 % 1004,9 hPa 0,0 mm 0,0 km/h (0 Bft) N 0 0 min 0 UV-I 5 W/m 0,0 km/h (0 Bft)
05.08.2010 06:40 14,4 C 93 % 1005,1 hPa 0,0 mm 0,0 km/h (0 Bft) W-SW 247 0 min 0 UV-I 9 W/m 1,6 km/h (1 Bft)
05.08.2010 06:50 14,6 C 93 % 1005,2 hPa 0,0 mm 0,0 km/h (0 Bft) N 0 0 min 0 UV-I 11 W/m 0,0 km/h (0 Bft)
05.08.2010 07:00 14,7 C 93 % 1005,1 hPa 0,0 mm 0,0 km/h (0 Bft) N 0 0 min 0 UV-I 14 W/m 0,0 km/h (0 Bft)
05.08.2010 07:10 14,7 C 93 % 1005,2 hPa 0,0 mm 0,0 km/h (0 Bft) W-SW 247 0 min 0 UV-I 14 W/m 1,6 km/h (1 Bft)
05.08.2010 07:20 14,8 C 94 % 1005,4 hPa 0,0 mm 0,0 km/h (0 Bft) W-SW 244 0 min 0 UV-I 23 W/m 1,6 km/h (1 Bft)
05.08.2010 07:30 14,9 C 93 % 1005,4 hPa 0,0 mm 0,0 km/h (0 Bft) W-SW 247 0 min 0 UV-I 35 W/m 1,6 km/h (1 Bft)
05.08.2010 07:40 14,9 C 93 % 1005,4 hPa 0,0 mm 0,0 km/h (0 Bft) N 0 0 min 0 UV-I 25 W/m 0,0 km/h (0 Bft)
05.08.2010 07:50 15,0 C 93 % 1005,5 hPa 0,0 mm 0,0 km/h (0 Bft) N 0 0 min 0 UV-I 84 W/m 0,0 km/h (0 Bft)
05.08.2010 08:00 15,1 C 93 % 1005,5 hPa 0,0 mm 0,7 km/h (0 Bft) W-SW 244 0 min 1 UV-I 108 W/m 3,2 km/h (1 Bft)
05.08.2010 08:10 15,2 C 93 % 1005,5 hPa 0,0 mm 1,6 km/h (1 Bft) W-SW 247 10 min 1 UV-I 195 W/m 4,8 km/h (1 Bft)
05.08.2010 08:20 15,4 C 92 % 1005,6 hPa 0,0 mm 1,6 km/h (1 Bft) W-SW 247 0 min 1 UV-I 125 W/m 6,4 km/h (2 Bft)
05.08.2010 08:30 15,6 C 92 % 1005,8 hPa 0,0 mm 1,6 km/h (1 Bft) S-SW 202 0 min 1 UV-I 100 W/m 6,4 km/h (2 Bft)
05.08.2010 08:40 15,7 C 91 % 1005,7 hPa 0,0 mm 1,6 km/h (1 Bft) S-SW 202 0 min 1 UV-I 174 W/m 6,4 km/h (2 Bft)
05.08.2010 08:50 15,8 C 91 % 1005,7 hPa 0,0 mm 3,2 km/h (1 Bft) W 270 10 min 1 UV-I 294 W/m 9,7 km/h (2 Bft)
05.08.2010 09:00 16,1 C 89 % 1005,7 hPa 0,0 mm 3,2 km/h (1 Bft) W 270 10 min 1 UV-I 294 W/m 8,0 km/h (2 Bft)
05.08.2010 09:10 16,2 C 88 % 1005,7 hPa 0,0 mm 3,2 km/h (1 Bft) W-NW 292 10 min 2 UV-I 450 W/m 9,7 km/h (2 Bft)
05.08.2010 09:20 16,6 C 87 % 1005,8 hPa 0,0 mm 1,6 km/h (1 Bft) NW 315 10 min 2 UV-I 376 W/m 6,4 km/h (2 Bft)
05.08.2010 09:30 16,8 C 85 % 1005,8 hPa 0,0 mm 1,6 km/h (1 Bft) NW 315 0 min 2 UV-I 279 W/m 8,0 km/h (2 Bft)
05.08.2010 09:40 16,9 C 85 % 1005,9 hPa 0,0 mm 1,6 km/h (1 Bft) NW 315 0 min 2 UV-I 290 W/m 6,4 km/h (2 Bft)
05.08.2010 09:50 17,0 C 84 % 1006,1 hPa 0,0 mm 3,2 km/h (1 Bft) NW 315 10 min 2 UV-I 330 W/m 9,7 km/h (2 Bft)
05.08.2010 10:00 17,1 C 84 % 1006,7 hPa 0,0 mm 4,8 km/h (1 Bft) W 270 0 min 1 UV-I 209 W/m 11,3 km/h (2 Bft)
05.08.2010 10:10 17,0 C 83 % 1006,8 hPa 0,0 mm 3,2 km/h (1 Bft) NW 315 10 min 2 UV-I 353 W/m 11,3 km/h (2 Bft)
05.08.2010 10:20 17,0 C 84 % 1006,4 hPa 0,0 mm 4,8 km/h (1 Bft) W-NW 292 10 min 3 UV-I 387 W/m 11,3 km/h (2 Bft)
05.08.2010 10:30 17,4 C 82 % 1006,4 hPa 0,0 mm 3,2 km/h (1 Bft) W 270 10 min 4 UV-I 800 W/m 14,5 km/h (3 Bft)
05.08.2010 10:40 17,8 C 80 % 1006,6 hPa 0,0 mm 3,2 km/h (1 Bft) NW 315 10 min 4 UV-I 689 W/m 14,5 km/h (3 Bft)
05.08.2010 10:50 17,9 C 78 % 1006,7 hPa 0,0 mm 4,8 km/h (1 Bft) NW 315 10 min 3 UV-I 429 W/m 14,5 km/h (3 Bft)
05.08.2010 11:00 17,9 C 78 % 1006,7 hPa 0,0 mm 3,2 km/h (1 Bft) NW 315 0 min 2 UV-I 350 W/m 14,5 km/h (3 Bft)
05.08.2010 11:10 17,5 C 80 % 1006,9 hPa 0,0 mm 4,8 km/h (1 Bft) W 270 0 min 1 UV-I 111 W/m 17,7 km/h (3 Bft)
05.08.2010 11:20 16,8 C 83 % 1006,9 hPa 0,0 mm 6,4 km/h (2 Bft) NW 315 0 min 1 UV-I 118 W/m 17,7 km/h (3 Bft)
05.08.2010 11:30 16,6 C 85 % 1007,1 hPa 0,0 mm 3,2 km/h (1 Bft) W 270 0 min 1 UV-I 167 W/m 9,7 km/h (2 Bft)
05.08.2010 11:40 16,6 C 85 % 1007,2 hPa 0,0 mm 3,2 km/h (1 Bft) W 270 0 min 1 UV-I 156 W/m 11,3 km/h (2 Bft)
05.08.2010 11:50 16,5 C 84 % 1007,3 hPa 0,0 mm 3,2 km/h (1 Bft) W 270 0 min 1 UV-I 163 W/m 9,7 km/h (2 Bft)
05.08.2010 12:00 16,7 C 84 % 1007,3 hPa 0,0 mm 1,6 km/h (1 Bft) W 270 0 min 2 UV-I 250 W/m 8,0 km/h (2 Bft)
05.08.2010 12:10 17,0 C 82 % 1007,3 hPa 0,0 mm 3,2 km/h (1 Bft) W 270 0 min 2 UV-I 255 W/m 8,0 km/h (2 Bft)
05.08.2010 12:20 17,1 C 79 % 1007,3 hPa 0,0 mm 4,8 km/h (1 Bft) W 270 0 min 2 UV-I 236 W/m 11,3 km/h (2 Bft)
05.08.2010 12:30 17,2 C 77 % 1007,4 hPa 0,0 mm 4,8 km/h (1 Bft) SW 225 0 min 2 UV-I 221 W/m 14,5 km/h (3 Bft)
05.08.2010 12:40 17,3 C 79 % 1007,4 hPa 0,0 mm 4,8 km/h (1 Bft) W 270 0 min 3 UV-I 302 W/m 12,9 km/h (3 Bft)
05.08.2010 12:50 17,6 C 75 % 1007,5 hPa 0,0 mm 4,8 km/h (1 Bft) W 270 0 min 3 UV-I 308 W/m 14,5 km/h (3 Bft)
05.08.2010 13:00 17,7 C 75 % 1007,6 hPa 0,0 mm 4,8 km/h (1 Bft) W 270 0 min 3 UV-I 304 W/m 16,1 km/h (3 Bft)
05.08.2010 13:10 17,9 C 74 % 1007,5 hPa 0,0 mm 1,6 km/h (1 Bft) W-SW 247 0 min 3 UV-I 376 W/m 12,9 km/h (3 Bft)
05.08.2010 13:20 18,2 C 73 % 1007,5 hPa 0,0 mm 1,6 km/h (1 Bft) W 270 0 min 3 UV-I 373 W/m 9,7 km/h (2 Bft)
05.08.2010 13:30 18,3 C 73 % 1007,5 hPa 0,0 mm 1,6 km/h (1 Bft) N-NW 337 10 min 6 UV-I 939 W/m 11,3 km/h (2 Bft)
05.08.2010 13:40 18,6 C 73 % 1007,7 hPa 0,0 mm 3,2 km/h (1 Bft) NW 315 10 min 3 UV-I 462 W/m 9,7 km/h (2 Bft)
05.08.2010 13:50 18,3 C 73 % 1007,7 hPa 0,0 mm 3,2 km/h (1 Bft) NW 315 0 min 4 UV-I 420 W/m 14,5 km/h (3 Bft)
05.08.2010 14:00 18,7 C 71 % 1007,7 hPa 0,0 mm 3,2 km/h (1 Bft) W-NW 292 0 min 6 UV-I 396 W/m 8,0 km/h (2 Bft)
05.08.2010 14:10 18,8 C 71 % 1007,8 hPa 0,0 mm 4,8 km/h (1 Bft) W 270 10 min 4 UV-I 469 W/m 14,5 km/h (3 Bft)
05.08.2010 14:20 19,0 C 70 % 1007,8 hPa 0,0 mm 4,8 km/h (1 Bft) W 270 0 min 4 UV-I 415 W/m 16,1 km/h (3 Bft)
05.08.2010 14:30 19,1 C 69 % 1007,9 hPa 0,0 mm 4,8 km/h (1 Bft) W 270 10 min 5 UV-I 838 W/m 14,5 km/h (3 Bft)
05.08.2010 14:40 18,9 C 68 % 1008,2 hPa 0,0 mm 3,2 km/h (1 Bft) W 270 0 min 2 UV-I 294 W/m 11,3 km/h (2 Bft)
05.08.2010 14:50 18,9 C 67 % 1008,2 hPa 0,0 mm 4,8 km/h (1 Bft) W 270 0 min 2 UV-I 288 W/m 11,3 km/h (2 Bft)
05.08.2010 15:00 19,1 C 67 % 1008,2 hPa 0,0 mm 3,2 km/h (1 Bft) W-SW 247 10 min 4 UV-I 570 W/m 11,3 km/h (2 Bft)
05.08.2010 15:10 19,9 C 65 % 1008,1 hPa 0,0 mm 1,6 km/h (1 Bft) W 270 10 min 5 UV-I 942 W/m 9,7 km/h (2 Bft)
05.08.2010 15:20 20,9 C 64 % 1008,0 hPa 0,0 mm 4,8 km/h (1 Bft) W-NW 292 10 min 5 UV-I 856 W/m 19,3 km/h (3 Bft)
05.08.2010 15:30 21,1 C 62 % 1008,0 hPa 0,0 mm 1,6 km/h (1 Bft) W 270 10 min 5 UV-I 867 W/m 9,7 km/h (2 Bft)
05.08.2010 15:40 21,1 C 60 % 1008,1 hPa 0,0 mm 3,2 km/h (1 Bft) W-NW 292 10 min 5 UV-I 895 W/m 11,3 km/h (2 Bft)
05.08.2010 15:50 21,2 C 57 % 1008,2 hPa 0,0 mm 4,8 km/h (1 Bft) W-NW 292 10 min 5 UV-I 851 W/m 11,3 km/h (2 Bft)
05.08.2010 16:00 21,2 C 60 % 1008,2 hPa 0,0 mm 4,8 km/h (1 Bft) W-SW 247 10 min 4 UV-I 867 W/m 16,1 km/h (3 Bft)
05.08.2010 16:10 21,7 C 57 % 1008,2 hPa 0,0 mm 6,4 km/h (2 Bft) W 270 10 min 4 UV-I 819 W/m 20,9 km/h (4 Bft)
05.08.2010 16:20 21,9 C 53 % 1008,1 hPa 0,0 mm 6,4 km/h (2 Bft) W-SW 247 10 min 4 UV-I 838 W/m 16,1 km/h (3 Bft)
05.08.2010 16:30 22,1 C 53 % 1008,3 hPa 0,0 mm 6,4 km/h (2 Bft) W-NW 292 10 min 4 UV-I 789 W/m 19,3 km/h (3 Bft)
05.08.2010 16:40 21,6 C 57 % 1008,3 hPa 0,0 mm 3,2 km/h (1 Bft) NW 315 10 min 3 UV-I 689 W/m 14,5 km/h (3 Bft)
05.08.2010 16:50 21,0 C 56 % 1008,3 hPa 0,0 mm 4,8 km/h (1 Bft) W 270 10 min 3 UV-I 744 W/m 16,1 km/h (3 Bft)
05.08.2010 17:00 21,6 C 53 % 1008,4 hPa 0,0 mm 4,8 km/h (1 Bft) W-NW 292 10 min 3 UV-I 657 W/m 16,1 km/h (3 Bft)
05.08.2010 17:10 21,9 C 53 % 1008,4 hPa 0,0 mm 3,2 km/h (1 Bft) N-NO 22 10 min 3 UV-I 610 W/m 12,9 km/h (3 Bft)
05.08.2010 17:20 22,0 C 52 % 1008,4 hPa 0,0 mm 3,2 km/h (1 Bft) NW 315 10 min 3 UV-I 617 W/m 9,7 km/h (2 Bft)
05.08.2010 17:30 21,9 C 52 % 1008,4 hPa 0,0 mm 3,2 km/h (1 Bft) W-NW 292 10 min 2 UV-I 608 W/m 9,7 km/h (2 Bft)
05.08.2010 17:40 22,3 C 55 % 1008,5 hPa 0,0 mm 1,6 km/h (1 Bft) NO 45 10 min 2 UV-I 570 W/m 8,0 km/h (2 Bft)
05.08.2010 17:50 21,9 C 55 % 1008,7 hPa 0,0 mm 1,6 km/h (1 Bft) N 360 10 min 2 UV-I 527 W/m 8,0 km/h (2 Bft)
05.08.2010 18:00 21,6 C 53 % 1008,6 hPa 0,0 mm 1,6 km/h (1 Bft) NW 315 10 min 2 UV-I 501 W/m 6,4 km/h (2 Bft)
05.08.2010 18:10 21,9 C 49 % 1008,6 hPa 0,0 mm 3,2 km/h (1 Bft) NW 315 10 min 2 UV-I 462 W/m 16,1 km/h (3 Bft)
05.08.2010 18:20 21,7 C 50 % 1008,6 hPa 0,0 mm 4,8 km/h (1 Bft) W-NW 292 10 min 1 UV-I 422 W/m 14,5 km/h (3 Bft)
05.08.2010 18:30 21,4 C 52 % 1008,7 hPa 0,0 mm 1,6 km/h (1 Bft) W 270 0 min 1 UV-I 95 W/m 11,3 km/h (2 Bft)
05.08.2010 18:40 20,8 C 54 % 1008,8 hPa 0,0 mm 1,6 km/h (1 Bft) W-NW 292 10 min 1 UV-I 229 W/m 9,7 km/h (2 Bft)
05.08.2010 18:50 20,9 C 54 % 1009,0 hPa 0,0 mm 1,6 km/h (1 Bft) N-NW 337 10 min 1 UV-I 267 W/m 8,0 km/h (2 Bft)
05.08.2010 19:00 20,7 C 55 % 1009,0 hPa 0,0 mm 1,6 km/h (1 Bft) W-NW 292 0 min 1 UV-I 167 W/m 9,7 km/h (2 Bft)
05.08.2010 19:10 20,6 C 57 % 1009,0 hPa 0,0 mm 3,2 km/h (1 Bft) W-NW 292 0 min 1 UV-I 137 W/m 12,9 km/h (3 Bft)
05.08.2010 19:20 20,2 C 58 % 1009,2 hPa 0,0 mm 3,2 km/h (1 Bft) W 270 0 min 1 UV-I 70 W/m 11,3 km/h (2 Bft)
05.08.2010 19:30 19,8 C 61 % 1009,4 hPa 0,0 mm 1,6 km/h (1 Bft) W-NW 292 0 min 0 UV-I 39 W/m 9,7 km/h (2 Bft)
05.08.2010 19:40 19,3 C 62 % 1009,5 hPa 0,0 mm 2,4 km/h (1 Bft) NW 304 0 min 0 UV-I 24 W/m 11,3 km/h (2 Bft)
05.08.2010 19:50 19,1 C 63 % 1009,7 hPa 0,0 mm 4,7 km/h (1 Bft) W-NW 289 0 min 0 UV-I 19 W/m 14,5 km/h (3 Bft)
05.08.2010 20:00 19,0 C 64 % 1009,8 hPa 0,0 mm 4,0 km/h (1 Bft) W 278 0 min 0 UV-I 14 W/m 14,5 km/h (3 Bft)
05.08.2010 20:10 18,9 C 65 % 1009,8 hPa 0,0 mm 3,4 km/h (1 Bft) NW 322 0 min 0 UV-I 6 W/m 11,3 km/h (2 Bft)
05.08.2010 20:20 18,8 C 65 % 1010,2 hPa 0,0 mm 3,1 km/h (1 Bft) NW 315 0 min 0 UV-I 1 W/m 9,7 km/h (2 Bft)
05.08.2010 20:30 18,7 C 66 % 1010,4 hPa 0,0 mm 2,6 km/h (1 Bft) NW 306 0 min 0 UV-I 0 W/m 9,7 km/h (2 Bft)
05.08.2010 20:40 18,6 C 69 % 1010,5 hPa 0,0 mm 0,3 km/h (0 Bft) NW 308 0 min 0 UV-I 0 W/m 4,8 km/h (1 Bft)
05.08.2010 20:50 18,4 C 69 % 1010,6 hPa 0,0 mm 0,2 km/h (0 Bft) NW 306 0 min 0 UV-I 0 W/m 4,8 km/h (1 Bft)
05.08.2010 21:00 18,4 C 69 % 1010,7 hPa 0,0 mm 0,2 km/h (0 Bft) NW 306 0 min 0 UV-I 0 W/m 4,8 km/h (1 Bft)
05.08.2010 21:10 18,3 C 70 % 1010,7 hPa 0,0 mm 0,0 km/h (0 Bft) NW 315 0 min 0 UV-I 0 W/m 6,4 km/h (2 Bft)
05.08.2010 21:20 18,2 C 70 % 1010,8 hPa 0,0 mm 0,0 km/h (0 Bft) W-NW 292 0 min 0 UV-I 0 W/m 4,8 km/h (1 Bft)
05.08.2010 21:30 18,1 C 69 % 1011,0 hPa 0,0 mm 1,6 km/h (1 Bft) W-NW 292 0 min 0 UV-I 0 W/m 4,8 km/h (1 Bft)
05.08.2010 21:40 18,0 C 68 % 1011,1 hPa 0,0 mm 1,6 km/h (1 Bft) W-NW 292 0 min 0 UV-I 0 W/m 9,7 km/h (2 Bft)
05.08.2010 21:50 18,0 C 68 % 1011,0 hPa 0,0 mm 1,6 km/h (1 Bft) W-NW 292 0 min 0 UV-I 0 W/m 9,7 km/h (2 Bft)
05.08.2010 22:00 17,9 C 69 % 1011,1 hPa 0,0 mm 1,6 km/h (1 Bft) W-NW 292 0 min 0 UV-I 0 W/m 6,4 km/h (2 Bft)
05.08.2010 22:10 17,7 C 71 % 1011,2 hPa 0,0 mm 0,0 km/h (0 Bft) W-NW 292 0 min 0 UV-I 0 W/m 3,2 km/h (1 Bft)
05.08.2010 22:20 17,5 C 71 % 1011,4 hPa 0,0 mm 0,0 km/h (0 Bft) W 270 0 min 0 UV-I 0 W/m 6,4 km/h (2 Bft)
05.08.2010 22:30 17,3 C 71 % 1011,6 hPa 0,0 mm 1,6 km/h (1 Bft) W-NW 292 0 min 0 UV-I 0 W/m 11,3 km/h (2 Bft)
05.08.2010 22:40 17,2 C 70 % 1011,8 hPa 0,0 mm 1,6 km/h (1 Bft) W-NW 292 0 min 0 UV-I 0 W/m 9,7 km/h (2 Bft)
05.08.2010 22:50 17,2 C 71 % 1011,9 hPa 0,0 mm 1,6 km/h (1 Bft) NW 315 0 min 0 UV-I 0 W/m 9,7 km/h (2 Bft)
05.08.2010 23:00 17,1 C 71 % 1012,1 hPa 0,0 mm 1,6 km/h (1 Bft) W 270 0 min 0 UV-I 0 W/m 8,0 km/h (2 Bft)
05.08.2010 23:10 17,0 C 72 % 1012,1 hPa 0,0 mm 1,6 km/h (1 Bft) W-NW 292 0 min 0 UV-I 0 W/m 8,0 km/h (2 Bft)
05.08.2010 23:20 16,8 C 72 % 1012,2 hPa 0,0 mm 1,6 km/h (1 Bft) W-NW 292 0 min 0 UV-I 0 W/m 9,7 km/h (2 Bft)
05.08.2010 23:30 16,7 C 73 % 1012,2 hPa 0,0 mm 3,2 km/h (1 Bft) W-NW 292 0 min 0 UV-I 0 W/m 9,7 km/h (2 Bft)
05.08.2010 23:40 16,4 C 74 % 1012,4 hPa 0,0 mm 1,6 km/h (1 Bft) NW 315 0 min 0 UV-I 0 W/m 11,3 km/h (2 Bft)
05.08.2010 23:50 16,3 C 75 % 1012,5 hPa 0,0 mm 1,6 km/h (1 Bft) NW 315 0 min 0 UV-I 0 W/m 8,0 km/h (2 Bft)
_ Min-Zeit 05:50 18:10 03:50 - 00:20 - - - - - 01:50
Minimum _ 13,9 C 49 % 1004,0 hPa - 0,0 km/h (0 Bft) - - - - - 0,0 km/h (0 Bft)
_ Max-Zeit 17:40 07:20 23:50 00:40 11:20 - - 08:10 13:30 15:10 16:10
Maximum _ 22,4 C 94 % 1012,5 hPa 0,5 mm 6,4 km/h
NW (2 Bft)
- - 10 min 6 UV-I 942 W/m 20,9 km/h
W (4 Bft)
Durchschnitt _ 17,3 C 78 % 1007,2 hPa #2,3 mm 1,9 km/h (1 Bft) W - #6:20 h 2 UV-I 358 W/m 7,6 km/h (2 Bft)